sensor_id;sensor_type;location;lat;lon;timestamp;temperature;humidity
32698;DHT22;19087;51.062;3.754;2023-12-20T00:00:22;8.00;99.90
32698;DHT22;19087;51.062;3.754;2023-12-20T00:02:49;7.90;99.90
32698;DHT22;19087;51.062;3.754;2023-12-20T00:05:15;7.80;99.90
32698;DHT22;19087;51.062;3.754;2023-12-20T00:07:41;7.80;99.90
32698;DHT22;19087;51.062;3.754;2023-12-20T00:10:08;7.70;99.90
32698;DHT22;19087;51.062;3.754;2023-12-20T00:12:34;7.80;99.90
32698;DHT22;19087;51.062;3.754;2023-12-20T00:15:01;7.80;99.90
32698;DHT22;19087;51.062;3.754;2023-12-20T00:17:28;7.70;99.90
32698;DHT22;19087;51.062;3.754;2023-12-20T00:19:54;7.80;99.90
32698;DHT22;19087;51.062;3.754;2023-12-20T00:22:21;7.70;99.90
32698;DHT22;19087;51.062;3.754;2023-12-20T00:24:48;7.70;99.90
32698;DHT22;19087;51.062;3.754;2023-12-20T00:27:14;7.70;99.90
32698;DHT22;19087;51.062;3.754;2023-12-20T00:29:40;7.70;99.90
32698;DHT22;19087;51.062;3.754;2023-12-20T00:32:08;7.70;99.90
32698;DHT22;19087;51.062;3.754;2023-12-20T00:34:34;7.60;99.90
32698;DHT22;19087;51.062;3.754;2023-12-20T00:37:01;7.60;99.90
32698;DHT22;19087;51.062;3.754;2023-12-20T00:39:29;7.60;99.90
32698;DHT22;19087;51.062;3.754;2023-12-20T00:41:57;7.60;99.90
32698;DHT22;19087;51.062;3.754;2023-12-20T00:44:25;7.50;99.90
32698;DHT22;19087;51.062;3.754;2023-12-20T00:46:50;7.50;99.90
32698;DHT22;19087;51.062;3.754;2023-12-20T00:49:16;7.40;99.90
32698;DHT22;19087;51.062;3.754;2023-12-20T00:51:42;7.40;99.90
32698;DHT22;19087;51.062;3.754;2023-12-20T00:54:08;7.50;99.90
32698;DHT22;19087;51.062;3.754;2023-12-20T00:56:35;7.50;99.90
32698;DHT22;19087;51.062;3.754;2023-12-20T00:59:00;7.50;99.90
32698;DHT22;19087;51.062;3.754;2023-12-20T01:01:26;7.50;99.90
32698;DHT22;19087;51.062;3.754;2023-12-20T01:03:52;7.60;99.90
32698;DHT22;19087;51.062;3.754;2023-12-20T01:06:18;7.80;99.90
32698;DHT22;19087;51.062;3.754;2023-12-20T01:08:45;7.70;99.90
32698;DHT22;19087;51.062;3.754;2023-12-20T01:11:12;7.60;99.90
32698;DHT22;19087;51.062;3.754;2023-12-20T01:13:40;7.60;99.90
32698;DHT22;19087;51.062;3.754;2023-12-20T01:16:10;7.70;99.90
32698;DHT22;19087;51.062;3.754;2023-12-20T01:18:36;7.80;99.90
32698;DHT22;19087;51.062;3.754;2023-12-20T01:21:02;8.00;99.90
32698;DHT22;19087;51.062;3.754;2023-12-20T01:23:29;8.00;99.90
32698;DHT22;19087;51.062;3.754;2023-12-20T01:25:55;8.00;99.90
32698;DHT22;19087;51.062;3.754;2023-12-20T01:28:20;8.10;99.90
32698;DHT22;19087;51.062;3.754;2023-12-20T01:30:47;8.10;99.90
32698;DHT22;19087;51.062;3.754;2023-12-20T01:33:13;8.10;99.90
32698;DHT22;19087;51.062;3.754;2023-12-20T01:35:40;8.10;99.90
32698;DHT22;19087;51.062;3.754;2023-12-20T01:38:05;8.10;99.90
32698;DHT22;19087;51.062;3.754;2023-12-20T01:40:31;8.10;99.90
32698;DHT22;19087;51.062;3.754;2023-12-20T01:43:07;8.10;99.90
32698;DHT22;19087;51.062;3.754;2023-12-20T01:45:34;8.10;99.90
32698;DHT22;19087;51.062;3.754;2023-12-20T01:48:01;8.10;99.90
32698;DHT22;19087;51.062;3.754;2023-12-20T01:50:29;8.10;99.90
32698;DHT22;19087;51.062;3.754;2023-12-20T01:52:58;8.10;99.90
32698;DHT22;19087;51.062;3.754;2023-12-20T01:55:26;8.30;99.90
32698;DHT22;19087;51.062;3.754;2023-12-20T01:57:53;8.30;99.90
32698;DHT22;19087;51.062;3.754;2023-12-20T02:00:27;8.30;99.90
32698;DHT22;19087;51.062;3.754;2023-12-20T02:02:54;8.20;99.90
32698;DHT22;19087;51.062;3.754;2023-12-20T02:05:23;8.20;99.90
32698;DHT22;19087;51.062;3.754;2023-12-20T02:07:49;8.30;99.90
32698;DHT22;19087;51.062;3.754;2023-12-20T02:10:16;8.30;99.90
32698;DHT22;19087;51.062;3.754;2023-12-20T02:12:43;8.20;99.90
32698;DHT22;19087;51.062;3.754;2023-12-20T02:15:08;8.20;99.90
32698;DHT22;19087;51.062;3.754;2023-12-20T02:17:35;8.10;99.90
32698;DHT22;19087;51.062;3.754;2023-12-20T02:20:01;8.30;99.90
32698;DHT22;19087;51.062;3.754;2023-12-20T02:22:27;8.30;99.90
32698;DHT22;19087;51.062;3.754;2023-12-20T02:24:53;8.30;99.90
32698;DHT22;19087;51.062;3.754;2023-12-20T02:27:20;8.50;99.90
32698;DHT22;19087;51.062;3.754;2023-12-20T02:29:47;8.60;99.90
32698;DHT22;19087;51.062;3.754;2023-12-20T02:32:13;8.70;99.90
32698;DHT22;19087;51.062;3.754;2023-12-20T02:34:39;8.80;99.90
32698;DHT22;19087;51.062;3.754;2023-12-20T02:37:05;8.80;99.90
32698;DHT22;19087;51.062;3.754;2023-12-20T02:39:30;8.70;99.90
32698;DHT22;19087;51.062;3.754;2023-12-20T02:41:57;8.80;99.90
32698;DHT22;19087;51.062;3.754;2023-12-20T02:44:23;8.80;99.90
32698;DHT22;19087;51.062;3.754;2023-12-20T02:46:50;8.70;99.90
32698;DHT22;19087;51.062;3.754;2023-12-20T02:49:15;8.80;99.90
32698;DHT22;19087;51.062;3.754;2023-12-20T02:51:42;8.80;99.90
32698;DHT22;19087;51.062;3.754;2023-12-20T02:54:09;8.90;99.90
32698;DHT22;19087;51.062;3.754;2023-12-20T02:56:35;8.80;99.90
32698;DHT22;19087;51.062;3.754;2023-12-20T02:59:01;8.80;99.90
32698;DHT22;19087;51.062;3.754;2023-12-20T03:01:28;8.70;99.90
32698;DHT22;19087;51.062;3.754;2023-12-20T03:03:54;8.70;99.90
32698;DHT22;19087;51.062;3.754;2023-12-20T03:06:20;8.70;99.90
32698;DHT22;19087;51.062;3.754;2023-12-20T03:08:46;8.80;99.90
32698;DHT22;19087;51.062;3.754;2023-12-20T03:11:12;8.80;99.90
32698;DHT22;19087;51.062;3.754;2023-12-20T03:13:37;8.60;99.90
32698;DHT22;19087;51.062;3.754;2023-12-20T03:16:11;8.60;99.90
32698;DHT22;19087;51.062;3.754;2023-12-20T03:18:36;8.60;99.90
32698;DHT22;19087;51.062;3.754;2023-12-20T03:21:08;8.60;99.90
32698;DHT22;19087;51.062;3.754;2023-12-20T03:23:34;8.70;99.90
32698;DHT22;19087;51.062;3.754;2023-12-20T03:25:59;8.60;99.90
32698;DHT22;19087;51.062;3.754;2023-12-20T03:28:27;8.70;99.90
32698;DHT22;19087;51.062;3.754;2023-12-20T03:30:53;8.60;99.90
32698;DHT22;19087;51.062;3.754;2023-12-20T03:33:18;8.60;99.90
32698;DHT22;19087;51.062;3.754;2023-12-20T03:35:47;8.60;99.90
32698;DHT22;19087;51.062;3.754;2023-12-20T03:38:13;8.80;99.90
32698;DHT22;19087;51.062;3.754;2023-12-20T03:40:39;8.80;99.90
32698;DHT22;19087;51.062;3.754;2023-12-20T03:43:05;8.80;99.90
32698;DHT22;19087;51.062;3.754;2023-12-20T03:45:30;8.80;99.90
32698;DHT22;19087;51.062;3.754;2023-12-20T03:47:57;8.80;99.90
32698;DHT22;19087;51.062;3.754;2023-12-20T03:50:23;8.80;99.90
32698;DHT22;19087;51.062;3.754;2023-12-20T03:52:49;8.80;99.90
32698;DHT22;19087;51.062;3.754;2023-12-20T03:55:15;8.90;99.90
32698;DHT22;19087;51.062;3.754;2023-12-20T03:57:41;8.80;99.90
32698;DHT22;19087;51.062;3.754;2023-12-20T04:00:10;8.80;99.90
32698;DHT22;19087;51.062;3.754;2023-12-20T04:02:40;8.80;99.90
32698;DHT22;19087;51.062;3.754;2023-12-20T04:05:07;8.80;99.90
32698;DHT22;19087;51.062;3.754;2023-12-20T04:07:36;8.70;99.90
32698;DHT22;19087;51.062;3.754;2023-12-20T04:10:05;8.60;99.90
32698;DHT22;19087;51.062;3.754;2023-12-20T04:12:32;8.70;99.90
32698;DHT22;19087;51.062;3.754;2023-12-20T04:14:57;8.60;99.90
32698;DHT22;19087;51.062;3.754;2023-12-20T04:17:23;8.60;99.90
32698;DHT22;19087;51.062;3.754;2023-12-20T04:19:52;8.70;99.90
32698;DHT22;19087;51.062;3.754;2023-12-20T04:22:20;8.60;99.90
32698;DHT22;19087;51.062;3.754;2023-12-20T04:24:45;8.60;99.90
32698;DHT22;19087;51.062;3.754;2023-12-20T04:27:12;8.40;99.90
32698;DHT22;19087;51.062;3.754;2023-12-20T04:29:38;8.40;99.90
32698;DHT22;19087;51.062;3.754;2023-12-20T04:32:04;8.30;99.90
32698;DHT22;19087;51.062;3.754;2023-12-20T04:34:31;8.30;99.90
32698;DHT22;19087;51.062;3.754;2023-12-20T04:36:59;8.50;99.90
32698;DHT22;19087;51.062;3.754;2023-12-20T04:39:25;8.60;99.90
32698;DHT22;19087;51.062;3.754;2023-12-20T04:41:51;8.60;99.90
32698;DHT22;19087;51.062;3.754;2023-12-20T04:44:18;8.30;99.90
32698;DHT22;19087;51.062;3.754;2023-12-20T04:46:43;8.40;99.90
32698;DHT22;19087;51.062;3.754;2023-12-20T04:49:09;8.40;99.90
32698;DHT22;19087;51.062;3.754;2023-12-20T04:51:36;8.40;99.90
32698;DHT22;19087;51.062;3.754;2023-12-20T04:54:05;8.40;99.90
32698;DHT22;19087;51.062;3.754;2023-12-20T04:56:31;8.30;99.90
32698;DHT22;19087;51.062;3.754;2023-12-20T04:58:57;8.20;99.90
32698;DHT22;19087;51.062;3.754;2023-12-20T05:01:23;8.30;99.90
32698;DHT22;19087;51.062;3.754;2023-12-20T05:03:49;8.20;99.90
32698;DHT22;19087;51.062;3.754;2023-12-20T05:06:14;8.10;99.90
32698;DHT22;19087;51.062;3.754;2023-12-20T05:08:40;8.20;99.90
32698;DHT22;19087;51.062;3.754;2023-12-20T05:11:06;8.30;99.90
32698;DHT22;19087;51.062;3.754;2023-12-20T05:13:32;8.10;99.90
32698;DHT22;19087;51.062;3.754;2023-12-20T05:15:59;7.90;99.90
32698;DHT22;19087;51.062;3.754;2023-12-20T05:18:25;7.90;99.90
32698;DHT22;19087;51.062;3.754;2023-12-20T05:20:53;8.00;99.90
32698;DHT22;19087;51.062;3.754;2023-12-20T05:23:20;8.10;99.90
32698;DHT22;19087;51.062;3.754;2023-12-20T05:25:46;8.00;99.90
32698;DHT22;19087;51.062;3.754;2023-12-20T05:28:12;7.90;99.90
32698;DHT22;19087;51.062;3.754;2023-12-20T05:30:39;7.90;99.90
32698;DHT22;19087;51.062;3.754;2023-12-20T05:33:05;7.90;99.90
32698;DHT22;19087;51.062;3.754;2023-12-20T05:35:30;8.00;99.90
32698;DHT22;19087;51.062;3.754;2023-12-20T05:37:56;8.10;99.90
32698;DHT22;19087;51.062;3.754;2023-12-20T05:40:22;8.10;99.90
32698;DHT22;19087;51.062;3.754;2023-12-20T05:42:47;8.00;99.90
32698;DHT22;19087;51.062;3.754;2023-12-20T05:45:14;8.00;99.90
32698;DHT22;19087;51.062;3.754;2023-12-20T05:47:41;8.10;99.90
32698;DHT22;19087;51.062;3.754;2023-12-20T05:50:07;8.30;99.90
32698;DHT22;19087;51.062;3.754;2023-12-20T05:52:33;8.30;99.90
32698;DHT22;19087;51.062;3.754;2023-12-20T05:55:00;8.30;99.90
32698;DHT22;19087;51.062;3.754;2023-12-20T05:57:27;8.30;99.90
32698;DHT22;19087;51.062;3.754;2023-12-20T05:59:53;8.20;99.90
32698;DHT22;19087;51.062;3.754;2023-12-20T06:02:18;8.10;99.90
32698;DHT22;19087;51.062;3.754;2023-12-20T06:04:44;8.10;99.90
32698;DHT22;19087;51.062;3.754;2023-12-20T06:07:16;7.90;99.90
32698;DHT22;19087;51.062;3.754;2023-12-20T06:09:42;7.90;99.90
32698;DHT22;19087;51.062;3.754;2023-12-20T06:12:09;7.90;99.90
32698;DHT22;19087;51.062;3.754;2023-12-20T06:14:35;7.70;99.90
32698;DHT22;19087;51.062;3.754;2023-12-20T06:17:01;7.70;99.90
32698;DHT22;19087;51.062;3.754;2023-12-20T06:19:27;7.70;99.90
32698;DHT22;19087;51.062;3.754;2023-12-20T06:21:53;7.70;99.90
32698;DHT22;19087;51.062;3.754;2023-12-20T06:24:19;7.60;99.90
32698;DHT22;19087;51.062;3.754;2023-12-20T06:26:44;7.50;99.90
32698;DHT22;19087;51.062;3.754;2023-12-20T06:29:12;7.60;99.90
32698;DHT22;19087;51.062;3.754;2023-12-20T06:31:37;7.50;99.90
32698;DHT22;19087;51.062;3.754;2023-12-20T06:34:03;7.50;99.90
32698;DHT22;19087;51.062;3.754;2023-12-20T06:36:29;7.60;99.90
32698;DHT22;19087;51.062;3.754;2023-12-20T06:38:55;7.60;99.90
32698;DHT22;19087;51.062;3.754;2023-12-20T06:41:21;7.40;99.90
32698;DHT22;19087;51.062;3.754;2023-12-20T06:43:46;7.30;99.90
32698;DHT22;19087;51.062;3.754;2023-12-20T06:46:12;7.30;99.90
32698;DHT22;19087;51.062;3.754;2023-12-20T06:48:39;7.30;99.90
32698;DHT22;19087;51.062;3.754;2023-12-20T06:51:05;7.20;99.90
32698;DHT22;19087;51.062;3.754;2023-12-20T06:53:31;7.20;99.90
32698;DHT22;19087;51.062;3.754;2023-12-20T06:55:57;7.20;99.90
32698;DHT22;19087;51.062;3.754;2023-12-20T06:58:23;7.20;99.90
32698;DHT22;19087;51.062;3.754;2023-12-20T07:00:51;7.20;99.90
32698;DHT22;19087;51.062;3.754;2023-12-20T07:03:17;7.10;99.90
32698;DHT22;19087;51.062;3.754;2023-12-20T07:05:43;7.20;99.90
32698;DHT22;19087;51.062;3.754;2023-12-20T07:08:09;7.20;99.90
32698;DHT22;19087;51.062;3.754;2023-12-20T07:10:35;7.20;99.90
32698;DHT22;19087;51.062;3.754;2023-12-20T07:13:03;7.00;99.90
32698;DHT22;19087;51.062;3.754;2023-12-20T07:15:29;7.00;99.90
32698;DHT22;19087;51.062;3.754;2023-12-20T07:17:56;7.10;99.90
32698;DHT22;19087;51.062;3.754;2023-12-20T07:20:22;7.00;99.90
32698;DHT22;19087;51.062;3.754;2023-12-20T07:22:47;7.10;99.90
32698;DHT22;19087;51.062;3.754;2023-12-20T07:25:13;7.00;99.90
32698;DHT22;19087;51.062;3.754;2023-12-20T07:27:39;7.00;99.90
32698;DHT22;19087;51.062;3.754;2023-12-20T07:30:05;7.10;99.90
32698;DHT22;19087;51.062;3.754;2023-12-20T07:32:31;7.10;99.90
32698;DHT22;19087;51.062;3.754;2023-12-20T07:34:58;7.00;99.90
32698;DHT22;19087;51.062;3.754;2023-12-20T07:37:24;7.00;99.90
32698;DHT22;19087;51.062;3.754;2023-12-20T07:39:51;7.10;99.90
32698;DHT22;19087;51.062;3.754;2023-12-20T07:42:19;7.20;99.90
32698;DHT22;19087;51.062;3.754;2023-12-20T07:44:47;7.20;99.90
32698;DHT22;19087;51.062;3.754;2023-12-20T07:47:13;7.00;99.90
32698;DHT22;19087;51.062;3.754;2023-12-20T07:49:45;7.10;99.90
32698;DHT22;19087;51.062;3.754;2023-12-20T07:52:11;7.10;99.90
32698;DHT22;19087;51.062;3.754;2023-12-20T07:54:37;7.10;99.90
32698;DHT22;19087;51.062;3.754;2023-12-20T07:57:02;7.20;99.90
32698;DHT22;19087;51.062;3.754;2023-12-20T07:59:30;7.20;99.90
32698;DHT22;19087;51.062;3.754;2023-12-20T08:01:58;7.20;99.90
32698;DHT22;19087;51.062;3.754;2023-12-20T08:04:24;7.20;99.90
32698;DHT22;19087;51.062;3.754;2023-12-20T08:06:50;7.20;99.90
32698;DHT22;19087;51.062;3.754;2023-12-20T08:09:16;7.20;99.90
32698;DHT22;19087;51.062;3.754;2023-12-20T08:11:48;7.20;99.90
32698;DHT22;19087;51.062;3.754;2023-12-20T08:14:16;7.20;99.90
32698;DHT22;19087;51.062;3.754;2023-12-20T08:16:45;7.30;99.90
32698;DHT22;19087;51.062;3.754;2023-12-20T08:19:11;7.10;99.90
32698;DHT22;19087;51.062;3.754;2023-12-20T08:21:36;7.00;99.90
32698;DHT22;19087;51.062;3.754;2023-12-20T08:24:02;7.20;99.90
32698;DHT22;19087;51.062;3.754;2023-12-20T08:26:29;7.20;99.90
32698;DHT22;19087;51.062;3.754;2023-12-20T08:28:56;7.20;99.90
32698;DHT22;19087;51.062;3.754;2023-12-20T08:31:24;7.20;99.90
32698;DHT22;19087;51.062;3.754;2023-12-20T08:33:50;7.20;99.90
32698;DHT22;19087;51.062;3.754;2023-12-20T08:36:16;7.20;99.90
32698;DHT22;19087;51.062;3.754;2023-12-20T08:38:43;7.20;99.90
32698;DHT22;19087;51.062;3.754;2023-12-20T08:41:09;7.30;99.90
32698;DHT22;19087;51.062;3.754;2023-12-20T08:43:38;7.20;99.90
32698;DHT22;19087;51.062;3.754;2023-12-20T08:46:08;6.90;99.90
32698;DHT22;19087;51.062;3.754;2023-12-20T08:48:40;6.90;99.90
32698;DHT22;19087;51.062;3.754;2023-12-20T08:51:09;7.10;99.90
32698;DHT22;19087;51.062;3.754;2023-12-20T08:53:35;7.30;99.90
32698;DHT22;19087;51.062;3.754;2023-12-20T08:56:02;7.40;99.90
32698;DHT22;19087;51.062;3.754;2023-12-20T08:58:28;7.60;99.90
32698;DHT22;19087;51.062;3.754;2023-12-20T09:00:55;7.70;99.90
32698;DHT22;19087;51.062;3.754;2023-12-20T09:03:27;7.80;99.90
32698;DHT22;19087;51.062;3.754;2023-12-20T09:05:52;7.80;99.90
32698;DHT22;19087;51.062;3.754;2023-12-20T09:08:18;7.80;99.90
32698;DHT22;19087;51.062;3.754;2023-12-20T09:10:47;7.80;99.90
32698;DHT22;19087;51.062;3.754;2023-12-20T09:13:13;7.80;99.90
32698;DHT22;19087;51.062;3.754;2023-12-20T09:15:39;7.90;99.90
32698;DHT22;19087;51.062;3.754;2023-12-20T09:18:05;7.90;99.90
32698;DHT22;19087;51.062;3.754;2023-12-20T09:20:32;8.10;99.90
32698;DHT22;19087;51.062;3.754;2023-12-20T09:22:59;8.10;99.90
32698;DHT22;19087;51.062;3.754;2023-12-20T09:25:28;8.10;99.90
32698;DHT22;19087;51.062;3.754;2023-12-20T09:27:54;8.10;99.90
32698;DHT22;19087;51.062;3.754;2023-12-20T09:30:20;7.90;99.90
32698;DHT22;19087;51.062;3.754;2023-12-20T09:32:46;8.00;99.90
32698;DHT22;19087;51.062;3.754;2023-12-20T09:35:13;8.10;99.90
32698;DHT22;19087;51.062;3.754;2023-12-20T09:37:41;8.10;99.90
32698;DHT22;19087;51.062;3.754;2023-12-20T09:40:14;8.30;99.90
32698;DHT22;19087;51.062;3.754;2023-12-20T09:42:52;8.40;99.90
32698;DHT22;19087;51.062;3.754;2023-12-20T09:45:20;8.50;99.90
32698;DHT22;19087;51.062;3.754;2023-12-20T09:47:55;8.60;99.90
32698;DHT22;19087;51.062;3.754;2023-12-20T09:50:22;8.90;99.90
32698;DHT22;19087;51.062;3.754;2023-12-20T09:52:53;8.90;99.90
32698;DHT22;19087;51.062;3.754;2023-12-20T09:55:21;9.10;99.90
32698;DHT22;19087;51.062;3.754;2023-12-20T09:57:48;9.10;99.90
32698;DHT22;19087;51.062;3.754;2023-12-20T10:00:17;9.20;99.90
32698;DHT22;19087;51.062;3.754;2023-12-20T10:02:50;9.40;99.90
32698;DHT22;19087;51.062;3.754;2023-12-20T10:05:17;9.50;99.90
32698;DHT22;19087;51.062;3.754;2023-12-20T10:07:47;9.50;99.90
32698;DHT22;19087;51.062;3.754;2023-12-20T10:10:13;9.60;99.90
32698;DHT22;19087;51.062;3.754;2023-12-20T10:12:40;9.70;99.90
32698;DHT22;19087;51.062;3.754;2023-12-20T10:15:06;9.70;99.90
32698;DHT22;19087;51.062;3.754;2023-12-20T10:17:32;9.70;99.90
32698;DHT22;19087;51.062;3.754;2023-12-20T10:19:58;9.70;99.90
32698;DHT22;19087;51.062;3.754;2023-12-20T10:22:24;9.90;99.90
32698;DHT22;19087;51.062;3.754;2023-12-20T10:24:50;9.90;99.90
32698;DHT22;19087;51.062;3.754;2023-12-20T10:27:18;10.00;99.90
32698;DHT22;19087;51.062;3.754;2023-12-20T10:29:45;10.00;99.90
32698;DHT22;19087;51.062;3.754;2023-12-20T10:32:26;10.00;99.90
32698;DHT22;19087;51.062;3.754;2023-12-20T10:34:53;10.10;99.90
32698;DHT22;19087;51.062;3.754;2023-12-20T10:37:20;10.10;99.90
32698;DHT22;19087;51.062;3.754;2023-12-20T10:39:55;10.10;99.90
32698;DHT22;19087;51.062;3.754;2023-12-20T10:42:27;10.10;99.90
32698;DHT22;19087;51.062;3.754;2023-12-20T10:44:53;10.00;99.90
32698;DHT22;19087;51.062;3.754;2023-12-20T10:47:20;9.90;99.90
32698;DHT22;19087;51.062;3.754;2023-12-20T10:49:46;9.80;99.90
32698;DHT22;19087;51.062;3.754;2023-12-20T10:52:13;9.90;99.90
32698;DHT22;19087;51.062;3.754;2023-12-20T10:54:42;9.80;99.90
32698;DHT22;19087;51.062;3.754;2023-12-20T10:57:08;9.90;99.90
32698;DHT22;19087;51.062;3.754;2023-12-20T10:59:36;9.90;99.90
32698;DHT22;19087;51.062;3.754;2023-12-20T11:02:04;10.00;99.90
32698;DHT22;19087;51.062;3.754;2023-12-20T11:04:58;10.10;99.90
32698;DHT22;19087;51.062;3.754;2023-12-20T11:07:49;10.20;99.90
32698;DHT22;19087;51.062;3.754;2023-12-20T11:10:25;10.20;99.90
32698;DHT22;19087;51.062;3.754;2023-12-20T11:12:54;10.00;99.90
32698;DHT22;19087;51.062;3.754;2023-12-20T11:15:25;10.20;99.90
32698;DHT22;19087;51.062;3.754;2023-12-20T11:17:56;10.40;99.90
32698;DHT22;19087;51.062;3.754;2023-12-20T11:20:37;10.40;99.90
32698;DHT22;19087;51.062;3.754;2023-12-20T11:23:04;10.50;99.90
32698;DHT22;19087;51.062;3.754;2023-12-20T11:25:56;10.60;99.90
32698;DHT22;19087;51.062;3.754;2023-12-20T11:28:26;10.60;99.90
32698;DHT22;19087;51.062;3.754;2023-12-20T11:30:52;10.60;99.90
32698;DHT22;19087;51.062;3.754;2023-12-20T11:33:26;10.60;99.90
32698;DHT22;19087;51.062;3.754;2023-12-20T11:35:56;10.70;99.90
32698;DHT22;19087;51.062;3.754;2023-12-20T11:38:22;10.50;99.90
32698;DHT22;19087;51.062;3.754;2023-12-20T11:40:54;10.60;99.90
32698;DHT22;19087;51.062;3.754;2023-12-20T11:43:36;10.70;99.90
32698;DHT22;19087;51.062;3.754;2023-12-20T11:46:06;10.70;99.90
32698;DHT22;19087;51.062;3.754;2023-12-20T11:48:38;10.70;99.90
32698;DHT22;19087;51.062;3.754;2023-12-20T11:51:11;10.70;99.90
32698;DHT22;19087;51.062;3.754;2023-12-20T11:53:37;10.70;99.90
32698;DHT22;19087;51.062;3.754;2023-12-20T11:56:06;10.70;99.90
32698;DHT22;19087;51.062;3.754;2023-12-20T11:58:36;10.60;99.90
32698;DHT22;19087;51.062;3.754;2023-12-20T12:01:05;10.60;99.90
32698;DHT22;19087;51.062;3.754;2023-12-20T12:03:34;10.60;99.90
32698;DHT22;19087;51.062;3.754;2023-12-20T12:06:01;10.50;99.90
32698;DHT22;19087;51.062;3.754;2023-12-20T12:08:29;10.60;99.90
32698;DHT22;19087;51.062;3.754;2023-12-20T12:10:55;10.60;99.90
32698;DHT22;19087;51.062;3.754;2023-12-20T12:13:24;10.60;99.90
32698;DHT22;19087;51.062;3.754;2023-12-20T12:15:54;10.70;99.90
32698;DHT22;19087;51.062;3.754;2023-12-20T12:18:20;10.70;99.90
32698;DHT22;19087;51.062;3.754;2023-12-20T12:20:49;10.60;99.90
32698;DHT22;19087;51.062;3.754;2023-12-20T12:23:23;10.50;99.90
32698;DHT22;19087;51.062;3.754;2023-12-20T12:25:51;10.50;99.90
32698;DHT22;19087;51.062;3.754;2023-12-20T12:28:17;10.50;99.90
32698;DHT22;19087;51.062;3.754;2023-12-20T12:30:56;10.60;99.90
32698;DHT22;19087;51.062;3.754;2023-12-20T12:33:25;10.60;99.90
32698;DHT22;19087;51.062;3.754;2023-12-20T12:35:52;10.80;99.90
32698;DHT22;19087;51.062;3.754;2023-12-20T12:38:22;11.00;99.90
32698;DHT22;19087;51.062;3.754;2023-12-20T12:40:51;11.10;99.90
32698;DHT22;19087;51.062;3.754;2023-12-20T12:43:19;11.30;99.90
32698;DHT22;19087;51.062;3.754;2023-12-20T12:45:52;11.30;99.90
32698;DHT22;19087;51.062;3.754;2023-12-20T12:48:21;11.30;99.90
32698;DHT22;19087;51.062;3.754;2023-12-20T12:50:49;11.30;99.90
32698;DHT22;19087;51.062;3.754;2023-12-20T12:53:18;11.40;99.90
32698;DHT22;19087;51.062;3.754;2023-12-20T12:55:44;11.30;99.90
32698;DHT22;19087;51.062;3.754;2023-12-20T12:58:09;11.20;99.90
32698;DHT22;19087;51.062;3.754;2023-12-20T13:00:35;11.20;99.90
32698;DHT22;19087;51.062;3.754;2023-12-20T13:03:01;11.00;99.90
32698;DHT22;19087;51.062;3.754;2023-12-20T13:05:28;11.10;99.90
32698;DHT22;19087;51.062;3.754;2023-12-20T13:07:56;11.20;99.90
32698;DHT22;19087;51.062;3.754;2023-12-20T13:10:22;11.20;99.90
32698;DHT22;19087;51.062;3.754;2023-12-20T13:12:50;11.20;99.90
32698;DHT22;19087;51.062;3.754;2023-12-20T13:15:18;11.30;99.90
32698;DHT22;19087;51.062;3.754;2023-12-20T13:17:44;11.40;99.90
32698;DHT22;19087;51.062;3.754;2023-12-20T13:20:12;11.40;99.90
32698;DHT22;19087;51.062;3.754;2023-12-20T13:22:44;11.30;99.90
32698;DHT22;19087;51.062;3.754;2023-12-20T13:25:10;11.30;99.90
32698;DHT22;19087;51.062;3.754;2023-12-20T13:27:36;11.30;99.90
32698;DHT22;19087;51.062;3.754;2023-12-20T13:30:04;11.30;99.90
32698;DHT22;19087;51.062;3.754;2023-12-20T13:32:30;11.40;99.90
32698;DHT22;19087;51.062;3.754;2023-12-20T13:34:56;11.40;99.90
32698;DHT22;19087;51.062;3.754;2023-12-20T13:37:23;11.40;99.90
32698;DHT22;19087;51.062;3.754;2023-12-20T13:39:51;11.40;99.90
32698;DHT22;19087;51.062;3.754;2023-12-20T13:42:28;11.40;99.90
32698;DHT22;19087;51.062;3.754;2023-12-20T13:44:57;11.40;99.90
32698;DHT22;19087;51.062;3.754;2023-12-20T13:47:22;11.40;99.90
32698;DHT22;19087;51.062;3.754;2023-12-20T13:49:49;11.40;99.90
32698;DHT22;19087;51.062;3.754;2023-12-20T13:52:18;11.30;99.90
32698;DHT22;19087;51.062;3.754;2023-12-20T13:54:54;11.30;99.90
32698;DHT22;19087;51.062;3.754;2023-12-20T13:57:30;11.30;99.90
32698;DHT22;19087;51.062;3.754;2023-12-20T14:00:01;11.30;99.90
32698;DHT22;19087;51.062;3.754;2023-12-20T14:02:29;11.30;99.90
32698;DHT22;19087;51.062;3.754;2023-12-20T14:04:55;11.30;99.90
32698;DHT22;19087;51.062;3.754;2023-12-20T14:07:22;11.30;99.90
32698;DHT22;19087;51.062;3.754;2023-12-20T14:09:54;11.40;99.90
32698;DHT22;19087;51.062;3.754;2023-12-20T14:12:26;11.40;99.90
32698;DHT22;19087;51.062;3.754;2023-12-20T14:14:53;11.40;99.90
32698;DHT22;19087;51.062;3.754;2023-12-20T14:17:22;11.40;99.90
32698;DHT22;19087;51.062;3.754;2023-12-20T14:19:48;11.30;99.90
32698;DHT22;19087;51.062;3.754;2023-12-20T14:22:15;11.30;99.90
32698;DHT22;19087;51.062;3.754;2023-12-20T14:24:43;11.20;99.90
32698;DHT22;19087;51.062;3.754;2023-12-20T14:27:15;11.30;99.90
32698;DHT22;19087;51.062;3.754;2023-12-20T14:29:41;11.20;99.90
32698;DHT22;19087;51.062;3.754;2023-12-20T14:32:07;11.30;99.90
32698;DHT22;19087;51.062;3.754;2023-12-20T14:34:32;11.20;99.90
32698;DHT22;19087;51.062;3.754;2023-12-20T14:36:58;11.20;99.90
32698;DHT22;19087;51.062;3.754;2023-12-20T14:39:24;11.20;99.90
32698;DHT22;19087;51.062;3.754;2023-12-20T14:41:51;11.20;99.90
32698;DHT22;19087;51.062;3.754;2023-12-20T14:44:18;11.30;99.90
32698;DHT22;19087;51.062;3.754;2023-12-20T14:46:44;11.30;99.90
32698;DHT22;19087;51.062;3.754;2023-12-20T14:49:10;11.30;99.90
32698;DHT22;19087;51.062;3.754;2023-12-20T14:51:35;11.10;99.90
32698;DHT22;19087;51.062;3.754;2023-12-20T14:54:02;11.20;99.90
32698;DHT22;19087;51.062;3.754;2023-12-20T14:56:28;11.20;99.90
32698;DHT22;19087;51.062;3.754;2023-12-20T14:58:54;11.20;99.90
32698;DHT22;19087;51.062;3.754;2023-12-20T15:01:19;11.30;99.90
32698;DHT22;19087;51.062;3.754;2023-12-20T15:03:47;11.30;99.90
32698;DHT22;19087;51.062;3.754;2023-12-20T15:06:13;11.20;99.90
32698;DHT22;19087;51.062;3.754;2023-12-20T15:08:39;11.20;99.90
32698;DHT22;19087;51.062;3.754;2023-12-20T15:11:05;11.10;99.90
32698;DHT22;19087;51.062;3.754;2023-12-20T15:13:31;11.00;99.90
32698;DHT22;19087;51.062;3.754;2023-12-20T15:15:57;11.00;99.90
32698;DHT22;19087;51.062;3.754;2023-12-20T15:18:24;11.00;99.90
32698;DHT22;19087;51.062;3.754;2023-12-20T15:20:50;11.00;99.90
32698;DHT22;19087;51.062;3.754;2023-12-20T15:23:16;11.10;99.90
32698;DHT22;19087;51.062;3.754;2023-12-20T15:25:43;11.00;99.90
32698;DHT22;19087;51.062;3.754;2023-12-20T15:28:10;11.10;99.90
32698;DHT22;19087;51.062;3.754;2023-12-20T15:30:37;11.10;99.90
32698;DHT22;19087;51.062;3.754;2023-12-20T15:33:04;11.10;99.90
32698;DHT22;19087;51.062;3.754;2023-12-20T15:35:31;11.10;99.90
32698;DHT22;19087;51.062;3.754;2023-12-20T15:37:57;11.00;99.90
32698;DHT22;19087;51.062;3.754;2023-12-20T15:40:26;11.20;99.90
32698;DHT22;19087;51.062;3.754;2023-12-20T15:42:54;11.20;99.90